sensor_id;sensor_type;location;lat;lon;timestamp;P1;durP1;ratioP1;P2;durP2;ratioP2
2326;SDS011;1174;51.588;7.328;2023-04-16T00:06:37;20.60;;;7.93;;
2326;SDS011;1174;51.588;7.328;2023-04-16T00:09:24;14.33;;;9.90;;
2326;SDS011;1174;51.588;7.328;2023-04-16T00:11:59;10.93;;;7.53;;
2326;SDS011;1174;51.588;7.328;2023-04-16T00:14:41;10.47;;;7.23;;
2326;SDS011;1174;51.588;7.328;2023-04-16T00:17:09;28.07;;;10.30;;
2326;SDS011;1174;51.588;7.328;2023-04-16T00:19:49;12.80;;;8.30;;
2326;SDS011;1174;51.588;7.328;2023-04-16T00:22:20;27.40;;;8.10;;
2326;SDS011;1174;51.588;7.328;2023-04-16T00:24:48;18.00;;;7.27;;
2326;SDS011;1174;51.588;7.328;2023-04-16T00:27:26;19.13;;;9.10;;
2326;SDS011;1174;51.588;7.328;2023-04-16T00:29:57;18.60;;;6.77;;
2326;SDS011;1174;51.588;7.328;2023-04-16T00:35:28;10.27;;;7.03;;
2326;SDS011;1174;51.588;7.328;2023-04-16T00:38:09;17.63;;;11.07;;
2326;SDS011;1174;51.588;7.328;2023-04-16T00:40:45;15.63;;;8.30;;
2326;SDS011;1174;51.588;7.328;2023-04-16T00:43:19;10.47;;;6.37;;
2326;SDS011;1174;51.588;7.328;2023-04-16T00:48:36;10.87;;;6.80;;
2326;SDS011;1174;51.588;7.328;2023-04-16T00:51:20;13.23;;;6.50;;
2326;SDS011;1174;51.588;7.328;2023-04-16T00:54:01;9.90;;;5.70;;
2326;SDS011;1174;51.588;7.328;2023-04-16T00:56:32;11.90;;;6.40;;
2326;SDS011;1174;51.588;7.328;2023-04-16T00:59:02;16.23;;;6.23;;
2326;SDS011;1174;51.588;7.328;2023-04-16T01:01:29;11.23;;;6.53;;
2326;SDS011;1174;51.588;7.328;2023-04-16T01:03:56;12.20;;;6.90;;
2326;SDS011;1174;51.588;7.328;2023-04-16T01:06:24;11.57;;;6.63;;
2326;SDS011;1174;51.588;7.328;2023-04-16T01:09:06;13.10;;;6.07;;
2326;SDS011;1174;51.588;7.328;2023-04-16T01:11:39;21.83;;;8.97;;
2326;SDS011;1174;51.588;7.328;2023-04-16T01:14:06;15.87;;;6.90;;
2326;SDS011;1174;51.588;7.328;2023-04-16T01:16:37;9.03;;;6.73;;
2326;SDS011;1174;51.588;7.328;2023-04-16T01:22:20;12.60;;;5.90;;
2326;SDS011;1174;51.588;7.328;2023-04-16T01:24:56;14.13;;;6.23;;
2326;SDS011;1174;51.588;7.328;2023-04-16T01:27:25;9.20;;;5.57;;
2326;SDS011;1174;51.588;7.328;2023-04-16T01:33:30;16.63;;;6.30;;
2326;SDS011;1174;51.588;7.328;2023-04-16T01:46:26;9.10;;;6.50;;
2326;SDS011;1174;51.588;7.328;2023-04-16T01:49:12;9.97;;;5.80;;
2326;SDS011;1174;51.588;7.328;2023-04-16T01:51:48;11.80;;;6.73;;
2326;SDS011;1174;51.588;7.328;2023-04-16T01:54:41;16.33;;;7.80;;
2326;SDS011;1174;51.588;7.328;2023-04-16T02:00:56;13.10;;;6.93;;
2326;SDS011;1174;51.588;7.328;2023-04-16T02:03:44;13.07;;;6.80;;
2326;SDS011;1174;51.588;7.328;2023-04-16T02:06:12;17.67;;;8.33;;
2326;SDS011;1174;51.588;7.328;2023-04-16T02:08:39;15.77;;;8.00;;
2326;SDS011;1174;51.588;7.328;2023-04-16T02:11:17;13.73;;;7.57;;
2326;SDS011;1174;51.588;7.328;2023-04-16T02:13:51;14.00;;;7.47;;
2326;SDS011;1174;51.588;7.328;2023-04-16T02:16:25;19.90;;;8.70;;
2326;SDS011;1174;51.588;7.328;2023-04-16T02:18:52;10.63;;;6.23;;
2326;SDS011;1174;51.588;7.328;2023-04-16T02:21:21;19.23;;;9.23;;
2326;SDS011;1174;51.588;7.328;2023-04-16T02:23:48;18.07;;;8.00;;
2326;SDS011;1174;51.588;7.328;2023-04-16T02:26:21;12.80;;;6.70;;
2326;SDS011;1174;51.588;7.328;2023-04-16T02:28:50;24.50;;;9.37;;
2326;SDS011;1174;51.588;7.328;2023-04-16T02:31:20;14.13;;;8.00;;
2326;SDS011;1174;51.588;7.328;2023-04-16T02:34:02;14.23;;;7.50;;
2326;SDS011;1174;51.588;7.328;2023-04-16T02:36:31;16.80;;;8.07;;
2326;SDS011;1174;51.588;7.328;2023-04-16T02:39:07;14.73;;;8.03;;
2326;SDS011;1174;51.588;7.328;2023-04-16T02:41:34;16.03;;;8.73;;
2326;SDS011;1174;51.588;7.328;2023-04-16T02:44:10;13.57;;;7.57;;
2326;SDS011;1174;51.588;7.328;2023-04-16T02:46:37;13.37;;;6.07;;
2326;SDS011;1174;51.588;7.328;2023-04-16T02:49:06;16.63;;;8.30;;
2326;SDS011;1174;51.588;7.328;2023-04-16T02:51:38;17.33;;;9.27;;
2326;SDS011;1174;51.588;7.328;2023-04-16T02:54:06;16.40;;;8.60;;
2326;SDS011;1174;51.588;7.328;2023-04-16T02:56:36;15.07;;;6.63;;
2326;SDS011;1174;51.588;7.328;2023-04-16T02:59:17;14.53;;;7.70;;
2326;SDS011;1174;51.588;7.328;2023-04-16T03:01:46;10.63;;;6.20;;
2326;SDS011;1174;51.588;7.328;2023-04-16T03:07:20;11.93;;;7.40;;
2326;SDS011;1174;51.588;7.328;2023-04-16T03:09:52;18.27;;;9.20;;
2326;SDS011;1174;51.588;7.328;2023-04-16T03:12:22;15.80;;;8.70;;
2326;SDS011;1174;51.588;7.328;2023-04-16T03:14:51;13.07;;;8.70;;
2326;SDS011;1174;51.588;7.328;2023-04-16T03:17:25;12.47;;;7.40;;
2326;SDS011;1174;51.588;7.328;2023-04-16T03:19:58;20.60;;;10.50;;
2326;SDS011;1174;51.588;7.328;2023-04-16T03:22:41;16.80;;;9.10;;
2326;SDS011;1174;51.588;7.328;2023-04-16T03:25:47;17.30;;;9.73;;
2326;SDS011;1174;51.588;7.328;2023-04-16T03:28:20;13.50;;;8.97;;
2326;SDS011;1174;51.588;7.328;2023-04-16T03:30:57;14.20;;;8.40;;
2326;SDS011;1174;51.588;7.328;2023-04-16T03:33:26;14.93;;;7.40;;
2326;SDS011;1174;51.588;7.328;2023-04-16T03:36:07;18.57;;;10.77;;
2326;SDS011;1174;51.588;7.328;2023-04-16T03:38:35;21.83;;;9.30;;
2326;SDS011;1174;51.588;7.328;2023-04-16T03:41:11;21.23;;;10.37;;
2326;SDS011;1174;51.588;7.328;2023-04-16T03:43:47;22.80;;;8.87;;
2326;SDS011;1174;51.588;7.328;2023-04-16T03:46:19;19.67;;;10.37;;
2326;SDS011;1174;51.588;7.328;2023-04-16T03:48:47;18.67;;;9.27;;
2326;SDS011;1174;51.588;7.328;2023-04-16T03:51:18;19.00;;;9.90;;
2326;SDS011;1174;51.588;7.328;2023-04-16T03:53:52;24.37;;;11.40;;
2326;SDS011;1174;51.588;7.328;2023-04-16T03:56:19;22.40;;;10.40;;
2326;SDS011;1174;51.588;7.328;2023-04-16T03:59:00;18.23;;;10.93;;
2326;SDS011;1174;51.588;7.328;2023-04-16T04:01:47;13.30;;;7.93;;
2326;SDS011;1174;51.588;7.328;2023-04-16T04:04:31;18.13;;;8.30;;
2326;SDS011;1174;51.588;7.328;2023-04-16T04:07:01;29.23;;;9.10;;
2326;SDS011;1174;51.588;7.328;2023-04-16T04:11:23;24.97;;;12.20;;
2326;SDS011;1174;51.588;7.328;2023-04-16T04:12:57;20.90;;;9.70;;
2326;SDS011;1174;51.588;7.328;2023-04-16T04:15:26;21.30;;;9.73;;
2326;SDS011;1174;51.588;7.328;2023-04-16T04:17:53;22.60;;;11.03;;
2326;SDS011;1174;51.588;7.328;2023-04-16T04:33:47;19.47;;;9.93;;
2326;SDS011;1174;51.588;7.328;2023-04-16T04:36:26;23.73;;;12.50;;
2326;SDS011;1174;51.588;7.328;2023-04-16T04:52:44;24.03;;;12.87;;
2326;SDS011;1174;51.588;7.328;2023-04-16T04:56:15;32.83;;;12.10;;
2326;SDS011;1174;51.588;7.328;2023-04-16T04:59:01;19.47;;;10.00;;
2326;SDS011;1174;51.588;7.328;2023-04-16T05:15:13;25.60;;;14.47;;
2326;SDS011;1174;51.588;7.328;2023-04-16T05:28:05;28.50;;;12.97;;
2326;SDS011;1174;51.588;7.328;2023-04-16T05:30:55;20.10;;;10.70;;
2326;SDS011;1174;51.588;7.328;2023-04-16T05:33:43;18.80;;;10.97;;
2326;SDS011;1174;51.588;7.328;2023-04-16T05:36:11;23.37;;;12.67;;
2326;SDS011;1174;51.588;7.328;2023-04-16T05:39:24;24.30;;;10.93;;
2326;SDS011;1174;51.588;7.328;2023-04-16T06:19:52;14.77;;;8.20;;
2326;SDS011;1174;51.588;7.328;2023-04-16T06:25:50;19.93;;;10.30;;
2326;SDS011;1174;51.588;7.328;2023-04-16T06:28:49;19.07;;;10.17;;
2326;SDS011;1174;51.588;7.328;2023-04-16T06:37:58;24.57;;;11.70;;
2326;SDS011;1174;51.588;7.328;2023-04-16T06:43:46;19.27;;;10.87;;
2326;SDS011;1174;51.588;7.328;2023-04-16T06:46:44;22.17;;;11.00;;
2326;SDS011;1174;51.588;7.328;2023-04-16T06:52:32;19.37;;;10.50;;
2326;SDS011;1174;51.588;7.328;2023-04-16T06:55:01;17.50;;;8.57;;
2326;SDS011;1174;51.588;7.328;2023-04-16T06:57:46;25.80;;;12.00;;
2326;SDS011;1174;51.588;7.328;2023-04-16T07:00:50;16.90;;;9.80;;
2326;SDS011;1174;51.588;7.328;2023-04-16T07:03:52;19.77;;;11.33;;
2326;SDS011;1174;51.588;7.328;2023-04-16T07:07:13;17.30;;;9.00;;
2326;SDS011;1174;51.588;7.328;2023-04-16T07:09:42;16.80;;;9.80;;
2326;SDS011;1174;51.588;7.328;2023-04-16T07:12:17;17.70;;;10.17;;
2326;SDS011;1174;51.588;7.328;2023-04-16T07:14:55;23.73;;;14.10;;
2326;SDS011;1174;51.588;7.328;2023-04-16T07:17:22;21.07;;;10.93;;
2326;SDS011;1174;51.588;7.328;2023-04-16T07:19:57;18.43;;;11.00;;
2326;SDS011;1174;51.588;7.328;2023-04-16T07:23:37;23.00;;;12.67;;
2326;SDS011;1174;51.588;7.328;2023-04-16T07:26:25;16.80;;;9.37;;
2326;SDS011;1174;51.588;7.328;2023-04-16T07:29:03;28.00;;;11.20;;
2326;SDS011;1174;51.588;7.328;2023-04-16T07:31:41;22.70;;;11.93;;
2326;SDS011;1174;51.588;7.328;2023-04-16T07:34:29;17.00;;;10.07;;
2326;SDS011;1174;51.588;7.328;2023-04-16T07:37:12;21.73;;;11.50;;
2326;SDS011;1174;51.588;7.328;2023-04-16T07:42:58;18.30;;;10.53;;
2326;SDS011;1174;51.588;7.328;2023-04-16T07:45:39;23.83;;;12.40;;
2326;SDS011;1174;51.588;7.328;2023-04-16T07:48:06;19.00;;;9.43;;
2326;SDS011;1174;51.588;7.328;2023-04-16T07:50:39;19.73;;;11.60;;
2326;SDS011;1174;51.588;7.328;2023-04-16T07:53:07;19.33;;;11.43;;
2326;SDS011;1174;51.588;7.328;2023-04-16T07:55:36;25.07;;;12.87;;
2326;SDS011;1174;51.588;7.328;2023-04-16T07:58:18;18.50;;;10.80;;
2326;SDS011;1174;51.588;7.328;2023-04-16T08:00:45;16.63;;;10.80;;
2326;SDS011;1174;51.588;7.328;2023-04-16T08:03:15;15.70;;;11.90;;
2326;SDS011;1174;51.588;7.328;2023-04-16T08:06:24;14.80;;;6.90;;
2326;SDS011;1174;51.588;7.328;2023-04-16T08:08:53;17.77;;;11.03;;
2326;SDS011;1174;51.588;7.328;2023-04-16T08:11:21;19.80;;;12.53;;
2326;SDS011;1174;51.588;7.328;2023-04-16T08:13:51;15.20;;;8.77;;
2326;SDS011;1174;51.588;7.328;2023-04-16T08:16:20;19.13;;;11.40;;
2326;SDS011;1174;51.588;7.328;2023-04-16T08:18:47;14.77;;;10.30;;
2326;SDS011;1174;51.588;7.328;2023-04-16T08:21:23;15.63;;;11.30;;
2326;SDS011;1174;51.588;7.328;2023-04-16T08:25:31;16.37;;;9.67;;
2326;SDS011;1174;51.588;7.328;2023-04-16T08:35:12;20.83;;;10.43;;
2326;SDS011;1174;51.588;7.328;2023-04-16T08:41:17;17.23;;;10.60;;
2326;SDS011;1174;51.588;7.328;2023-04-16T08:44:32;18.53;;;11.27;;
2326;SDS011;1174;51.588;7.328;2023-04-16T08:50:23;20.47;;;9.20;;
2326;SDS011;1174;51.588;7.328;2023-04-16T08:53:01;17.20;;;10.93;;
2326;SDS011;1174;51.588;7.328;2023-04-16T08:56:08;14.30;;;10.57;;
2326;SDS011;1174;51.588;7.328;2023-04-16T09:02:51;20.20;;;10.20;;
2326;SDS011;1174;51.588;7.328;2023-04-16T09:08:55;19.70;;;10.00;;
2326;SDS011;1174;51.588;7.328;2023-04-16T09:15:23;21.13;;;10.43;;
2326;SDS011;1174;51.588;7.328;2023-04-16T09:25:23;14.70;;;9.53;;
2326;SDS011;1174;51.588;7.328;2023-04-16T09:31:28;16.17;;;9.93;;
2326;SDS011;1174;51.588;7.328;2023-04-16T09:34:03;18.33;;;9.77;;
2326;SDS011;1174;51.588;7.328;2023-04-16T09:36:52;18.03;;;10.83;;
2326;SDS011;1174;51.588;7.328;2023-04-16T09:39:53;17.73;;;11.07;;
2326;SDS011;1174;51.588;7.328;2023-04-16T09:42:58;17.20;;;11.03;;
2326;SDS011;1174;51.588;7.328;2023-04-16T09:45:29;22.97;;;13.07;;
2326;SDS011;1174;51.588;7.328;2023-04-16T09:48:39;16.17;;;10.50;;
2326;SDS011;1174;51.588;7.328;2023-04-16T09:51:06;22.10;;;14.77;;
2326;SDS011;1174;51.588;7.328;2023-04-16T10:06:33;22.20;;;12.67;;
2326;SDS011;1174;51.588;7.328;2023-04-16T10:09:11;18.50;;;12.13;;
2326;SDS011;1174;51.588;7.328;2023-04-16T10:13:44;17.23;;;10.17;;
2326;SDS011;1174;51.588;7.328;2023-04-16T10:26:08;15.73;;;11.83;;
2326;SDS011;1174;51.588;7.328;2023-04-16T10:31:26;10.20;;;8.43;;
2326;SDS011;1174;51.588;7.328;2023-04-16T10:33:55;16.63;;;9.33;;
2326;SDS011;1174;51.588;7.328;2023-04-16T10:36:24;13.83;;;9.87;;
2326;SDS011;1174;51.588;7.328;2023-04-16T10:39:16;17.60;;;11.30;;
2326;SDS011;1174;51.588;7.328;2023-04-16T10:46:21;15.17;;;11.10;;
2326;SDS011;1174;51.588;7.328;2023-04-16T10:49:42;13.77;;;9.53;;
2326;SDS011;1174;51.588;7.328;2023-04-16T11:31:44;13.53;;;8.80;;
2326;SDS011;1174;51.588;7.328;2023-04-16T11:41:45;11.50;;;8.70;;
2326;SDS011;1174;51.588;7.328;2023-04-16T11:59:45;12.37;;;9.80;;
2326;SDS011;1174;51.588;7.328;2023-04-16T12:02:48;12.23;;;8.73;;
2326;SDS011;1174;51.588;7.328;2023-04-16T12:05:52;15.40;;;8.03;;
2326;SDS011;1174;51.588;7.328;2023-04-16T12:12:12;12.63;;;8.57;;
2326;SDS011;1174;51.588;7.328;2023-04-16T12:14:59;14.23;;;10.43;;
2326;SDS011;1174;51.588;7.328;2023-04-16T12:21:32;16.00;;;9.20;;
2326;SDS011;1174;51.588;7.328;2023-04-16T12:24:57;14.37;;;9.00;;
2326;SDS011;1174;51.588;7.328;2023-04-16T12:31:03;16.73;;;9.70;;
2326;SDS011;1174;51.588;7.328;2023-04-16T12:37:07;18.27;;;9.23;;
2326;SDS011;1174;51.588;7.328;2023-04-16T12:43:24;10.40;;;8.20;;
2326;SDS011;1174;51.588;7.328;2023-04-16T12:46:17;15.23;;;9.97;;
2326;SDS011;1174;51.588;7.328;2023-04-16T12:49:03;11.47;;;7.60;;
2326;SDS011;1174;51.588;7.328;2023-04-16T12:56:04;10.77;;;7.70;;
2326;SDS011;1174;51.588;7.328;2023-04-16T12:58:53;16.83;;;9.40;;
2326;SDS011;1174;51.588;7.328;2023-04-16T13:01:26;17.67;;;11.00;;
2326;SDS011;1174;51.588;7.328;2023-04-16T13:04:57;15.43;;;10.50;;
2326;SDS011;1174;51.588;7.328;2023-04-16T13:08:24;14.17;;;9.33;;
2326;SDS011;1174;51.588;7.328;2023-04-16T13:21:08;13.83;;;9.00;;
2326;SDS011;1174;51.588;7.328;2023-04-16T13:23:45;12.83;;;7.80;;
2326;SDS011;1174;51.588;7.328;2023-04-16T13:26:45;12.83;;;8.90;;
2326;SDS011;1174;51.588;7.328;2023-04-16T13:29:54;8.57;;;6.63;;
2326;SDS011;1174;51.588;7.328;2023-04-16T13:32:47;11.43;;;6.30;;
2326;SDS011;1174;51.588;7.328;2023-04-16T13:38:36;14.10;;;9.03;;
2326;SDS011;1174;51.588;7.328;2023-04-16T13:41:30;10.63;;;8.00;;
2326;SDS011;1174;51.588;7.328;2023-04-16T13:44:03;11.63;;;7.80;;
2326;SDS011;1174;51.588;7.328;2023-04-16T13:46:36;10.47;;;6.70;;
2326;SDS011;1174;51.588;7.328;2023-04-16T13:49:18;11.73;;;8.13;;
2326;SDS011;1174;51.588;7.328;2023-04-16T13:51:57;12.40;;;8.00;;
2326;SDS011;1174;51.588;7.328;2023-04-16T13:54:33;16.00;;;7.60;;
2326;SDS011;1174;51.588;7.328;2023-04-16T13:57:19;9.10;;;6.90;;
2326;SDS011;1174;51.588;7.328;2023-04-16T13:59:51;9.63;;;6.70;;
2326;SDS011;1174;51.588;7.328;2023-04-16T14:02:30;13.50;;;6.53;;
2326;SDS011;1174;51.588;7.328;2023-04-16T14:05:02;17.53;;;8.67;;
2326;SDS011;1174;51.588;7.328;2023-04-16T14:07:50;10.60;;;7.47;;
2326;SDS011;1174;51.588;7.328;2023-04-16T14:10:20;10.80;;;8.20;;
2326;SDS011;1174;51.588;7.328;2023-04-16T14:13:07;13.07;;;8.63;;
2326;SDS011;1174;51.588;7.328;2023-04-16T14:15:52;10.53;;;7.03;;
2326;SDS011;1174;51.588;7.328;2023-04-16T14:18:40;12.47;;;7.47;;
2326;SDS011;1174;51.588;7.328;2023-04-16T14:22:06;9.57;;;7.30;;
2326;SDS011;1174;51.588;7.328;2023-04-16T14:28:25;10.97;;;7.47;;
2326;SDS011;1174;51.588;7.328;2023-04-16T14:31:57;12.93;;;8.57;;
2326;SDS011;1174;51.588;7.328;2023-04-16T14:39:31;12.10;;;7.73;;
2326;SDS011;1174;51.588;7.328;2023-04-16T14:41:22;11.27;;;7.13;;
2326;SDS011;1174;51.588;7.328;2023-04-16T14:44:18;13.63;;;8.60;;
2326;SDS011;1174;51.588;7.328;2023-04-16T14:47:14;13.33;;;9.63;;
2326;SDS011;1174;51.588;7.328;2023-04-16T14:49:57;24.80;;;6.67;;
2326;SDS011;1174;51.588;7.328;2023-04-16T14:55:30;9.53;;;6.40;;
2326;SDS011;1174;51.588;7.328;2023-04-16T14:58:10;10.43;;;7.93;;
2326;SDS011;1174;51.588;7.328;2023-04-16T15:00:38;11.80;;;7.43;;
2326;SDS011;1174;51.588;7.328;2023-04-16T15:03:13;8.90;;;6.27;;
2326;SDS011;1174;51.588;7.328;2023-04-16T15:05:46;9.37;;;6.67;;
2326;SDS011;1174;51.588;7.328;2023-04-16T15:08:28;8.53;;;6.60;;
2326;SDS011;1174;51.588;7.328;2023-04-16T15:11:09;10.80;;;6.93;;
2326;SDS011;1174;51.588;7.328;2023-04-16T15:14:11;12.27;;;8.30;;
2326;SDS011;1174;51.588;7.328;2023-04-16T15:16:40;9.47;;;7.80;;
2326;SDS011;1174;51.588;7.328;2023-04-16T15:19:07;11.17;;;7.83;;
2326;SDS011;1174;51.588;7.328;2023-04-16T15:21:40;11.27;;;6.67;;
2326;SDS011;1174;51.588;7.328;2023-04-16T15:24:24;9.00;;;6.43;;
2326;SDS011;1174;51.588;7.328;2023-04-16T15:26:53;10.10;;;7.43;;
2326;SDS011;1174;51.588;7.328;2023-04-16T15:29:23;9.00;;;7.10;;
2326;SDS011;1174;51.588;7.328;2023-04-16T15:31:54;15.17;;;8.90;;
2326;SDS011;1174;51.588;7.328;2023-04-16T15:35:13;7.90;;;7.10;;
2326;SDS011;1174;51.588;7.328;2023-04-16T15:41:46;8.70;;;6.60;;
2326;SDS011;1174;51.588;7.328;2023-04-16T15:44:16;9.33;;;5.90;;
2326;SDS011;1174;51.588;7.328;2023-04-16T15:50:20;10.67;;;6.17;;
2326;SDS011;1174;51.588;7.328;2023-04-16T15:53:04;9.63;;;7.50;;
2326;SDS011;1174;51.588;7.328;2023-04-16T15:55:36;11.97;;;6.53;;
2326;SDS011;1174;51.588;7.328;2023-04-16T15:58:03;8.73;;;5.37;;
2326;SDS011;1174;51.588;7.328;2023-04-16T16:00:30;7.70;;;6.20;;
2326;SDS011;1174;51.588;7.328;2023-04-16T16:03:09;9.40;;;7.53;;
2326;SDS011;1174;51.588;7.328;2023-04-16T16:05:43;13.63;;;7.73;;
2326;SDS011;1174;51.588;7.328;2023-04-16T16:08:12;7.00;;;4.73;;
2326;SDS011;1174;51.588;7.328;2023-04-16T16:10:48;9.30;;;6.73;;
2326;SDS011;1174;51.588;7.328;2023-04-16T16:14:10;8.30;;;6.80;;
2326;SDS011;1174;51.588;7.328;2023-04-16T16:20:19;9.57;;;7.43;;
2326;SDS011;1174;51.588;7.328;2023-04-16T16:25:26;10.67;;;7.60;;
2326;SDS011;1174;51.588;7.328;2023-04-16T16:26:17;9.13;;;7.43;;
2326;SDS011;1174;51.588;7.328;2023-04-16T16:28:51;10.63;;;6.70;;
2326;SDS011;1174;51.588;7.328;2023-04-16T16:31:45;12.43;;;7.90;;
2326;SDS011;1174;51.588;7.328;2023-04-16T16:40:52;12.63;;;7.70;;
2326;SDS011;1174;51.588;7.328;2023-04-16T16:43:59;13.90;;;8.40;;
2326;SDS011;1174;51.588;7.328;2023-04-16T16:50:47;13.27;;;7.33;;
2326;SDS011;1174;51.588;7.328;2023-04-16T16:57:14;9.63;;;7.00;;
2326;SDS011;1174;51.588;7.328;2023-04-16T16:59:50;11.33;;;6.50;;
2326;SDS011;1174;51.588;7.328;2023-04-16T17:02:47;10.17;;;8.30;;
2326;SDS011;1174;51.588;7.328;2023-04-16T17:05:29;9.70;;;7.47;;
2326;SDS011;1174;51.588;7.328;2023-04-16T17:09:03;12.20;;;8.10;;
2326;SDS011;1174;51.588;7.328;2023-04-16T17:11:42;10.00;;;7.00;;
2326;SDS011;1174;51.588;7.328;2023-04-16T17:18:15;12.80;;;7.00;;
2326;SDS011;1174;51.588;7.328;2023-04-16T17:21:06;12.07;;;6.83;;
2326;SDS011;1174;51.588;7.328;2023-04-16T17:27:50;11.50;;;7.90;;
2326;SDS011;1174;51.588;7.328;2023-04-16T17:34:17;9.67;;;7.93;;
2326;SDS011;1174;51.588;7.328;2023-04-16T17:37:10;9.97;;;7.30;;
2326;SDS011;1174;51.588;7.328;2023-04-16T17:39:38;12.00;;;7.37;;
2326;SDS011;1174;51.588;7.328;2023-04-16T17:42:05;13.10;;;9.00;;
2326;SDS011;1174;51.588;7.328;2023-04-16T17:44:49;11.83;;;8.73;;
2326;SDS011;1174;51.588;7.328;2023-04-16T17:47:27;18.30;;;10.47;;
2326;SDS011;1174;51.588;7.328;2023-04-16T17:49:58;13.87;;;8.00;;
2326;SDS011;1174;51.588;7.328;2023-04-16T17:52:31;29.23;;;9.37;;
2326;SDS011;1174;51.588;7.328;2023-04-16T17:54:58;11.50;;;7.80;;
2326;SDS011;1174;51.588;7.328;2023-04-16T17:57:26;11.93;;;8.40;;
2326;SDS011;1174;51.588;7.328;2023-04-16T17:59:53;21.30;;;9.00;;
2326;SDS011;1174;51.588;7.328;2023-04-16T18:02:47;12.70;;;8.90;;
2326;SDS011;1174;51.588;7.328;2023-04-16T18:12:06;17.10;;;9.10;;
2326;SDS011;1174;51.588;7.328;2023-04-16T18:14:58;14.70;;;7.60;;
2326;SDS011;1174;51.588;7.328;2023-04-16T18:21:19;15.47;;;8.80;;
2326;SDS011;1174;51.588;7.328;2023-04-16T18:27:34;13.47;;;8.83;;
2326;SDS011;1174;51.588;7.328;2023-04-16T18:30:09;14.00;;;9.13;;
2326;SDS011;1174;51.588;7.328;2023-04-16T18:32:46;18.33;;;10.27;;
2326;SDS011;1174;51.588;7.328;2023-04-16T18:35:41;11.70;;;9.30;;
2326;SDS011;1174;51.588;7.328;2023-04-16T18:38:20;18.00;;;9.13;;
2326;SDS011;1174;51.588;7.328;2023-04-16T18:50:55;13.00;;;8.00;;
2326;SDS011;1174;51.588;7.328;2023-04-16T18:57:20;12.73;;;8.10;;
2326;SDS011;1174;51.588;7.328;2023-04-16T19:10:27;28.23;;;11.77;;
2326;SDS011;1174;51.588;7.328;2023-04-16T19:13:36;16.67;;;11.57;;
2326;SDS011;1174;51.588;7.328;2023-04-16T19:16:26;15.57;;;10.40;;
2326;SDS011;1174;51.588;7.328;2023-04-16T19:32:23;14.53;;;8.53;;
2326;SDS011;1174;51.588;7.328;2023-04-16T19:35:28;17.90;;;10.40;;
2326;SDS011;1174;51.588;7.328;2023-04-16T19:42:13;14.10;;;8.90;;
2326;SDS011;1174;51.588;7.328;2023-04-16T19:44:52;13.97;;;8.07;;
2326;SDS011;1174;51.588;7.328;2023-04-16T19:48:38;15.40;;;8.50;;
2326;SDS011;1174;51.588;7.328;2023-04-16T19:57:53;18.63;;;8.50;;
2326;SDS011;1174;51.588;7.328;2023-04-16T20:00:20;10.93;;;8.50;;
2326;SDS011;1174;51.588;7.328;2023-04-16T20:03:06;13.07;;;7.47;;
2326;SDS011;1174;51.588;7.328;2023-04-16T20:05:38;15.13;;;8.50;;
2326;SDS011;1174;51.588;7.328;2023-04-16T20:11:57;14.73;;;9.73;;
